createdAt,value
2023-06-23T00:01:33.223Z,19.40
2023-06-23T00:04:00.788Z,19.40
2023-06-23T00:06:27.677Z,19.40
2023-06-23T00:08:54.490Z,19.40
2023-06-23T00:11:21.442Z,19.50
2023-06-23T00:13:48.229Z,19.40
2023-06-23T00:16:15.086Z,19.40
2023-06-23T00:18:41.870Z,19.20
2023-06-23T00:21:11.083Z,19.10
2023-06-23T00:23:38.788Z,19.10
2023-06-23T00:26:07.875Z,19.00
2023-06-23T00:28:35.738Z,19.00
2023-06-23T00:31:03.137Z,19.00
2023-06-23T00:33:30.172Z,19.00
2023-06-23T00:35:57.001Z,18.90
2023-06-23T00:38:26.509Z,19.00
2023-06-23T00:40:54.225Z,19.00
2023-06-23T00:43:21.363Z,18.20
2023-06-23T00:45:49.260Z,19.00
2023-06-23T00:48:16.147Z,19.00
2023-06-23T00:50:43.570Z,19.00
2023-06-23T00:53:10.701Z,19.10
2023-06-23T00:55:38.735Z,19.00
2023-06-23T00:58:06.625Z,19.00
2023-06-23T01:00:33.630Z,19.00
2023-06-23T01:03:01.313Z,19.00
2023-06-23T01:05:37.715Z,19.00
2023-06-23T01:08:37.456Z,19.10
2023-06-23T01:11:14.414Z,19.10
2023-06-23T01:14:02.999Z,19.00
2023-06-23T01:16:39.015Z,19.00
2023-06-23T01:19:27.664Z,19.10
2023-06-23T01:22:33.738Z,19.10
2023-06-23T01:25:28.408Z,19.10
2023-06-23T01:28:31.002Z,19.10
2023-06-23T01:31:01.393Z,19.00
2023-06-23T01:33:39.185Z,19.00
2023-06-23T01:36:15.761Z,19.00
2023-06-23T01:38:47.736Z,18.90
2023-06-23T01:41:20.200Z,19.00
2023-06-23T01:43:51.121Z,19.10
2023-06-23T01:46:27.604Z,19.20
2023-06-23T01:49:00.346Z,19.20
2023-06-23T01:51:29.889Z,19.20
2023-06-23T01:53:58.577Z,19.10
2023-06-23T01:56:27.820Z,19.10
2023-06-23T01:58:57.407Z,19.20
2023-06-23T02:01:25.374Z,19.10
2023-06-23T02:03:53.342Z,19.30
2023-06-23T02:06:21.543Z,19.30
2023-06-23T02:08:49.982Z,19.40
2023-06-23T02:11:17.938Z,19.40
2023-06-23T02:13:46.268Z,19.20
2023-06-23T02:16:14.344Z,19.10
2023-06-23T02:18:42.652Z,19.20
2023-06-23T02:21:12.215Z,19.20
2023-06-23T02:23:40.320Z,19.20
2023-06-23T02:26:10.139Z,19.20
2023-06-23T02:28:37.912Z,19.10
2023-06-23T02:31:06.278Z,19.10
2023-06-23T02:33:33.309Z,19.10
2023-06-23T02:36:02.391Z,19.20
2023-06-23T02:38:31.910Z,19.20
2023-06-23T02:41:01.768Z,19.20
2023-06-23T02:43:35.779Z,19.20
2023-06-23T02:46:06.533Z,19.10
2023-06-23T02:48:44.796Z,19.10
2023-06-23T02:51:15.522Z,19.10
2023-06-23T02:53:47.077Z,19.10
2023-06-23T02:56:22.571Z,19.00
2023-06-23T02:58:53.008Z,19.20
2023-06-23T03:01:23.502Z,19.20
2023-06-23T03:03:51.170Z,19.20
2023-06-23T03:06:23.474Z,19.30
2023-06-23T03:08:51.748Z,19.30
2023-06-23T03:11:22.345Z,19.30
2023-06-23T03:13:49.852Z,19.30
2023-06-23T03:17:15.222Z,19.30
2023-06-23T03:19:44.034Z,19.30
2023-06-23T03:22:30.514Z,19.20
2023-06-23T03:25:05.061Z,19.10
2023-06-23T03:27:35.539Z,19.10
2023-06-23T03:30:42.151Z,19.00
2023-06-23T03:33:26.668Z,19.00
2023-06-23T03:35:56.828Z,19.00
2023-06-23T03:38:25.879Z,19.00
2023-06-23T03:41:03.805Z,18.90
2023-06-23T03:43:42.789Z,18.90
2023-06-23T03:46:27.426Z,18.90
2023-06-23T03:48:59.543Z,19.00
2023-06-23T03:51:28.601Z,19.10
2023-06-23T03:53:58.595Z,19.00
2023-06-23T03:56:29.838Z,19.00
2023-06-23T03:58:59.808Z,19.00
2023-06-23T04:01:29.740Z,19.10
2023-06-23T04:03:59.100Z,19.10
2023-06-23T04:06:27.677Z,19.10
2023-06-23T04:08:56.120Z,19.10
2023-06-23T04:11:24.120Z,19.00
2023-06-23T04:13:51.937Z,18.90
2023-06-23T04:16:20.022Z,19.00
2023-06-23T04:18:50.094Z,19.00
2023-06-23T04:21:19.037Z,19.00
2023-06-23T04:23:48.240Z,19.00
2023-06-23T04:26:16.896Z,19.10
2023-06-23T04:28:44.922Z,19.10
2023-06-23T04:31:14.060Z,19.00
2023-06-23T04:33:41.254Z,19.10
2023-06-23T04:36:15.643Z,19.10
2023-06-23T04:38:48.807Z,19.20
2023-06-23T04:41:20.536Z,19.10
2023-06-23T04:43:52.462Z,19.20
2023-06-23T04:46:33.018Z,19.20
2023-06-23T04:49:10.947Z,19.30
2023-06-23T04:51:52.959Z,19.20
2023-06-23T04:54:26.723Z,19.20
2023-06-23T04:57:02.327Z,19.20
2023-06-23T04:59:35.721Z,19.30
2023-06-23T05:02:04.967Z,19.40
2023-06-23T05:04:35.756Z,19.30
2023-06-23T05:07:04.252Z,19.30
2023-06-23T05:09:34.778Z,19.30
2023-06-23T05:12:03.591Z,19.30
2023-06-23T05:14:34.876Z,19.30
2023-06-23T05:17:04.039Z,19.40
2023-06-23T05:19:32.663Z,19.40
2023-06-23T05:22:00.397Z,19.30
2023-06-23T05:24:29.509Z,19.40
2023-06-23T05:27:00.806Z,19.40
2023-06-23T05:29:29.724Z,19.50
2023-06-23T05:31:59.017Z,19.60
2023-06-23T05:34:26.735Z,19.60
2023-06-23T05:36:54.430Z,19.80
2023-06-23T05:39:24.626Z,19.80
2023-06-23T05:41:51.655Z,19.90
2023-06-23T05:44:18.682Z,19.90
2023-06-23T05:46:47.614Z,20.00
2023-06-23T05:49:18.892Z,20.10
2023-06-23T05:51:54.550Z,20.20
2023-06-23T05:54:23.463Z,20.20
2023-06-23T05:56:54.840Z,20.20
2023-06-23T05:59:33.091Z,20.10
2023-06-23T06:02:02.858Z,20.00
2023-06-23T06:04:32.731Z,20.00
2023-06-23T06:07:01.622Z,19.90
2023-06-23T06:09:30.579Z,19.70
2023-06-23T06:11:59.416Z,19.70
2023-06-23T06:14:30.464Z,19.70
2023-06-23T06:16:58.420Z,19.70
2023-06-23T06:19:28.758Z,19.60
2023-06-23T06:21:57.633Z,19.60
2023-06-23T06:24:25.643Z,19.60
2023-06-23T06:26:57.734Z,19.60
2023-06-23T06:29:26.049Z,19.60
2023-06-23T06:31:54.686Z,19.80
2023-06-23T06:34:25.864Z,19.90
2023-06-23T06:36:56.225Z,20.40
2023-06-23T06:39:25.616Z,20.80
2023-06-23T06:41:54.428Z,20.80
2023-06-23T06:44:21.370Z,20.80
2023-06-23T06:46:48.981Z,20.70
2023-06-23T06:49:19.466Z,20.70
2023-06-23T06:51:47.594Z,20.80
2023-06-23T06:54:19.582Z,21.40
2023-06-23T06:56:47.054Z,22.00
2023-06-23T06:59:14.563Z,22.30
2023-06-23T07:01:43.277Z,22.30
2023-06-23T07:04:11.154Z,22.60
2023-06-23T07:06:38.231Z,23.30
2023-06-23T07:09:05.629Z,23.80
2023-06-23T07:11:33.279Z,23.30
2023-06-23T07:14:01.707Z,22.90
2023-06-23T07:16:34.762Z,23.50
2023-06-23T07:19:02.068Z,23.00
2023-06-23T07:21:29.568Z,22.50
2023-06-23T07:23:56.749Z,22.10
2023-06-23T07:26:23.786Z,22.00
2023-06-23T07:28:50.907Z,21.80
2023-06-23T07:31:18.023Z,21.40
2023-06-23T07:33:45.106Z,21.40
2023-06-23T07:36:12.194Z,21.30
2023-06-23T07:38:39.274Z,21.40
2023-06-23T07:41:07.177Z,21.40
2023-06-23T07:43:34.253Z,21.40
2023-06-23T07:46:01.628Z,21.60
2023-06-23T07:48:28.702Z,21.90
2023-06-23T07:50:55.730Z,22.30
2023-06-23T07:53:23.909Z,23.00
2023-06-23T07:55:51.029Z,23.40
2023-06-23T07:58:18.030Z,24.20
2023-06-23T08:00:45.181Z,24.80
2023-06-23T08:03:12.664Z,25.30
2023-06-23T08:05:40.172Z,24.70
2023-06-23T08:08:07.208Z,24.70
2023-06-23T08:10:34.410Z,24.20
2023-06-23T08:13:01.461Z,24.40
2023-06-23T08:15:28.836Z,24.20
2023-06-23T08:17:56.267Z,24.50
2023-06-23T08:20:24.165Z,24.90
2023-06-23T08:22:51.296Z,25.20
2023-06-23T08:25:18.688Z,25.40
2023-06-23T08:27:45.853Z,24.60
2023-06-23T08:30:15.665Z,24.00
2023-06-23T08:32:42.853Z,24.40
2023-06-23T08:35:12.123Z,24.90
2023-06-23T08:37:40.143Z,25.30
2023-06-23T08:40:07.994Z,25.90
2023-06-23T08:42:35.186Z,25.50
2023-06-23T08:45:06.360Z,24.90
2023-06-23T08:47:42.506Z,24.40
2023-06-23T08:50:09.790Z,25.30
2023-06-23T08:52:37.330Z,25.60
2023-06-23T08:55:05.115Z,26.90
2023-06-23T08:57:32.856Z,28.10
2023-06-23T09:00:01.158Z,28.60
2023-06-23T09:02:28.292Z,29.30
2023-06-23T09:04:55.283Z,29.90
2023-06-23T09:07:22.548Z,30.80
2023-06-23T09:09:49.611Z,30.90
2023-06-23T09:12:17.982Z,30.70
2023-06-23T09:14:45.405Z,30.70
2023-06-23T09:17:13.142Z,29.00
2023-06-23T09:19:41.149Z,27.60
2023-06-23T09:22:09.530Z,26.60
2023-06-23T09:24:41.280Z,25.50
2023-06-23T09:27:08.456Z,25.40
2023-06-23T09:29:38.379Z,25.60
2023-06-23T09:32:05.850Z,27.10
2023-06-23T09:34:37.591Z,27.00
2023-06-23T09:37:10.906Z,26.80
2023-06-23T09:39:39.945Z,26.50
2023-06-23T09:42:12.704Z,26.30
2023-06-23T09:44:44.282Z,26.10
2023-06-23T09:47:11.541Z,26.10
2023-06-23T09:49:47.065Z,26.00
2023-06-23T09:52:15.937Z,25.40
2023-06-23T09:54:43.273Z,24.80
2023-06-23T09:57:20.777Z,24.60
2023-06-23T09:59:53.381Z,24.80
2023-06-23T10:02:21.864Z,25.10
2023-06-23T10:04:50.284Z,25.50
2023-06-23T10:07:26.208Z,25.70
2023-06-23T10:10:04.741Z,25.60
2023-06-23T10:12:43.283Z,25.60
2023-06-23T10:15:11.418Z,25.50
2023-06-23T10:17:39.477Z,25.40
2023-06-23T10:20:07.444Z,25.30
2023-06-23T10:22:37.652Z,25.10
2023-06-23T10:25:13.052Z,24.80
2023-06-23T10:27:43.907Z,24.90
2023-06-23T10:30:14.127Z,25.30
2023-06-23T10:32:53.886Z,25.60
2023-06-23T10:35:22.910Z,25.70
2023-06-23T10:37:51.210Z,25.20
2023-06-23T10:40:21.833Z,25.00
2023-06-23T10:42:51.201Z,25.30
2023-06-23T10:45:18.220Z,25.50
2023-06-23T10:47:46.541Z,25.50
2023-06-23T10:50:14.861Z,25.60
2023-06-23T10:52:43.564Z,25.90
2023-06-23T10:55:35.441Z,26.10
2023-06-23T10:58:11.004Z,25.90
2023-06-23T11:00:38.499Z,25.50
2023-06-23T11:03:12.029Z,25.30
2023-06-23T11:05:45.082Z,24.90
2023-06-23T11:08:15.368Z,24.60
2023-06-23T11:10:58.871Z,25.00
2023-06-23T11:13:34.035Z,25.60
2023-06-23T11:16:01.781Z,25.70
2023-06-23T11:18:29.019Z,25.90
2023-06-23T11:21:01.861Z,26.10
2023-06-23T11:23:29.138Z,26.20
2023-06-23T11:25:56.269Z,26.20
2023-06-23T11:28:40.056Z,26.10
2023-06-23T11:31:14.383Z,26.10
2023-06-23T11:33:59.903Z,26.00
2023-06-23T11:36:29.545Z,25.80
2023-06-23T11:38:57.909Z,25.80
2023-06-23T11:41:35.164Z,25.70
2023-06-23T11:44:04.234Z,25.80
2023-06-23T11:46:35.536Z,25.90
2023-06-23T11:49:12.887Z,25.50
2023-06-23T11:51:41.336Z,25.40
2023-06-23T11:54:08.956Z,25.30
2023-06-23T11:56:36.231Z,25.30
2023-06-23T11:59:04.660Z,25.30
2023-06-23T12:01:31.829Z,25.20
2023-06-23T12:03:58.904Z,25.00
2023-06-23T12:06:26.124Z,24.90
2023-06-23T12:08:53.943Z,24.80
2023-06-23T12:11:22.234Z,24.70
2023-06-23T12:13:53.091Z,24.60
2023-06-23T12:16:20.223Z,24.80
2023-06-23T12:18:51.058Z,24.50
2023-06-23T12:21:20.657Z,24.40
2023-06-23T12:23:48.530Z,24.20
2023-06-23T12:26:15.785Z,24.50
2023-06-23T12:28:43.355Z,24.90
2023-06-23T12:31:10.462Z,25.20
2023-06-23T12:33:41.941Z,25.40
2023-06-23T12:36:15.378Z,25.60
2023-06-23T12:38:42.596Z,25.70
2023-06-23T12:41:25.262Z,25.90
2023-06-23T12:43:55.668Z,26.00
2023-06-23T12:46:26.687Z,25.90
2023-06-23T12:48:55.431Z,25.90
2023-06-23T12:51:32.424Z,25.90
2023-06-23T12:53:59.860Z,26.00
2023-06-23T12:56:27.025Z,26.30
2023-06-23T12:58:54.319Z,26.40
2023-06-23T13:01:21.566Z,26.10
2023-06-23T13:03:48.651Z,25.70
2023-06-23T13:06:16.152Z,25.50
2023-06-23T13:08:43.243Z,25.30
2023-06-23T13:11:10.350Z,25.20
2023-06-23T13:13:37.405Z,25.20
2023-06-23T13:16:04.437Z,25.30
2023-06-23T13:18:32.039Z,25.40
2023-06-23T13:20:59.053Z,25.60
2023-06-23T13:23:26.113Z,25.60
2023-06-23T13:25:53.475Z,25.60
2023-06-23T13:28:20.429Z,25.60
2023-06-23T13:30:47.492Z,25.70
2023-06-23T13:33:15.656Z,25.80
2023-06-23T13:35:42.606Z,26.00
2023-06-23T13:38:09.711Z,26.20
2023-06-23T13:40:37.201Z,26.30
2023-06-23T13:43:04.284Z,26.40
2023-06-23T13:45:31.641Z,26.40
2023-06-23T13:47:59.146Z,26.40
2023-06-23T13:50:26.216Z,26.30
2023-06-23T13:52:53.333Z,26.30
2023-06-23T13:55:20.462Z,26.40
2023-06-23T13:57:47.686Z,26.40
2023-06-23T14:00:15.864Z,26.60
2023-06-23T14:02:43.448Z,26.50
2023-06-23T14:05:10.647Z,26.40
2023-06-23T14:07:37.778Z,26.40
2023-06-23T14:10:06.209Z,26.30
2023-06-23T14:12:34.072Z,26.50
2023-06-23T14:15:01.449Z,26.60
2023-06-23T14:17:28.811Z,26.20
2023-06-23T14:19:56.130Z,26.20
2023-06-23T14:22:23.174Z,25.90
2023-06-23T14:24:50.386Z,25.70
2023-06-23T14:27:17.956Z,25.60
2023-06-23T14:29:45.020Z,25.50
2023-06-23T14:32:12.097Z,25.40
2023-06-23T14:34:39.086Z,25.50
2023-06-23T14:37:06.346Z,25.60
2023-06-23T14:39:33.260Z,25.60
2023-06-23T14:42:00.633Z,25.80
2023-06-23T14:44:28.034Z,26.00
2023-06-23T14:46:58.004Z,26.10
2023-06-23T14:49:25.306Z,26.20
2023-06-23T14:51:52.484Z,26.20
2023-06-23T14:54:19.564Z,26.30
2023-06-23T14:56:47.146Z,26.30
2023-06-23T14:59:14.352Z,26.10
2023-06-23T15:01:41.658Z,26.00
2023-06-23T15:04:08.683Z,26.10
2023-06-23T15:06:36.377Z,26.00
2023-06-23T15:09:03.604Z,26.20
2023-06-23T15:11:30.693Z,26.20
2023-06-23T15:13:57.698Z,26.10
2023-06-23T15:16:24.765Z,26.20
2023-06-23T15:18:51.812Z,26.20
2023-06-23T15:21:19.520Z,26.00
2023-06-23T15:23:47.593Z,25.90
2023-06-23T15:26:14.713Z,25.80
2023-06-23T15:28:41.862Z,25.70
2023-06-23T15:31:08.958Z,25.60
2023-06-23T15:33:35.922Z,25.60
2023-06-23T15:36:04.563Z,25.60
2023-06-23T15:38:32.823Z,25.60
2023-06-23T15:41:01.171Z,25.60
2023-06-23T15:43:28.501Z,25.60
2023-06-23T15:45:55.618Z,25.60
2023-06-23T15:48:22.829Z,25.70
2023-06-23T15:50:49.985Z,25.70
2023-06-23T15:53:17.401Z,25.90
2023-06-23T15:55:44.455Z,26.00
2023-06-23T15:58:11.644Z,26.10
2023-06-23T16:00:38.902Z,26.00
2023-06-23T16:03:06.035Z,26.00
2023-06-23T16:05:33.258Z,25.80
2023-06-23T16:08:00.471Z,25.90
2023-06-23T16:10:28.218Z,25.80
2023-06-23T16:12:55.385Z,25.90
2023-06-23T16:15:22.367Z,25.90
2023-06-23T16:17:51.470Z,25.80
2023-06-23T16:20:18.704Z,25.60
2023-06-23T16:22:46.044Z,25.70
2023-06-23T16:25:13.049Z,25.70
2023-06-23T16:27:40.068Z,25.80
2023-06-23T16:30:07.799Z,25.80
2023-06-23T16:32:35.145Z,25.90
2023-06-23T16:35:02.198Z,25.90
2023-06-23T16:37:29.428Z,25.90
2023-06-23T16:39:57.189Z,25.90
2023-06-23T16:42:25.050Z,25.90
2023-06-23T16:44:52.444Z,25.90
2023-06-23T16:47:19.682Z,25.90
2023-06-23T16:49:47.916Z,25.80
2023-06-23T16:52:15.045Z,25.90
2023-06-23T16:54:42.196Z,25.90
2023-06-23T16:57:11.756Z,25.90
2023-06-23T16:59:38.744Z,25.90
2023-06-23T17:02:06.510Z,25.90
2023-06-23T17:04:33.590Z,25.90
2023-06-23T17:07:00.743Z,25.90
2023-06-23T17:09:28.060Z,25.90
2023-06-23T17:12:11.830Z,25.90
2023-06-23T17:14:44.180Z,25.80
2023-06-23T17:17:11.217Z,25.90
2023-06-23T17:19:38.442Z,25.90
2023-06-23T17:22:06.066Z,25.90
2023-06-23T17:24:33.339Z,25.90
2023-06-23T17:27:00.309Z,25.90
2023-06-23T17:29:27.374Z,25.80
2023-06-23T17:31:54.528Z,25.60
2023-06-23T17:34:21.571Z,25.70
2023-06-23T17:36:48.590Z,25.60
2023-06-23T17:39:15.588Z,25.70
2023-06-23T17:41:42.539Z,25.70
2023-06-23T17:44:09.544Z,25.80
2023-06-23T17:46:36.632Z,25.80
2023-06-23T17:49:04.290Z,25.80
2023-06-23T17:51:31.317Z,25.80
2023-06-23T17:54:00.206Z,25.70
2023-06-23T17:56:27.864Z,25.60
2023-06-23T17:58:54.827Z,25.60
2023-06-23T18:01:22.349Z,25.60
2023-06-23T18:03:49.980Z,25.50
2023-06-23T18:06:18.010Z,25.50
2023-06-23T18:08:45.014Z,25.50
2023-06-23T18:11:12.363Z,25.50
2023-06-23T18:13:42.058Z,25.40
2023-06-23T18:16:09.736Z,25.40
2023-06-23T18:18:36.949Z,25.50
2023-06-23T18:21:04.529Z,25.40
2023-06-23T18:23:31.924Z,25.50
2023-06-23T18:25:58.970Z,25.50
2023-06-23T18:28:26.280Z,25.50
2023-06-23T18:30:53.417Z,25.40
2023-06-23T18:33:20.670Z,25.40
2023-06-23T18:35:47.650Z,25.30
2023-06-23T18:38:15.117Z,25.30
2023-06-23T18:40:42.290Z,25.30
2023-06-23T18:43:09.504Z,25.20
2023-06-23T18:45:36.941Z,25.10
2023-06-23T18:48:04.090Z,25.10
2023-06-23T18:50:31.268Z,25.10
2023-06-23T18:52:58.570Z,25.00
2023-06-23T18:55:25.615Z,24.80
2023-06-23T18:57:52.626Z,24.70
2023-06-23T19:00:19.871Z,24.50
2023-06-23T19:02:47.009Z,24.30
2023-06-23T19:05:14.184Z,24.00
2023-06-23T19:07:43.127Z,23.90
2023-06-23T19:10:10.136Z,23.70
2023-06-23T19:12:37.285Z,23.60
2023-06-23T19:15:04.584Z,23.40
2023-06-23T19:17:31.706Z,23.20
2023-06-23T19:20:01.779Z,23.10
2023-06-23T19:22:31.388Z,23.00
2023-06-23T19:24:58.428Z,22.90
2023-06-23T19:27:25.395Z,22.60
2023-06-23T19:29:52.473Z,22.50
2023-06-23T19:32:19.497Z,22.30
2023-06-23T19:34:46.539Z,22.20
2023-06-23T19:37:13.589Z,22.20
2023-06-23T19:39:51.222Z,22.10
2023-06-23T19:42:27.110Z,21.90
2023-06-23T19:44:54.281Z,21.80
2023-06-23T19:47:22.722Z,21.70
2023-06-23T19:49:49.932Z,21.60
2023-06-23T19:52:17.368Z,21.60
2023-06-23T19:54:44.365Z,21.40
2023-06-23T19:57:11.553Z,21.30
2023-06-23T19:59:38.543Z,21.10
2023-06-23T20:02:05.865Z,21.10
2023-06-23T20:04:32.954Z,21.00
2023-06-23T20:07:00.347Z,20.90
2023-06-23T20:09:27.612Z,20.90
2023-06-23T20:11:54.577Z,20.80
2023-06-23T20:14:21.877Z,20.70
2023-06-23T20:16:49.406Z,20.60
2023-06-23T20:19:17.540Z,20.60
2023-06-23T20:21:46.174Z,20.70
2023-06-23T20:24:14.945Z,20.50
2023-06-23T20:26:42.196Z,20.40
2023-06-23T20:29:09.240Z,20.50
2023-06-23T20:31:36.288Z,20.30
2023-06-23T20:34:03.618Z,20.30
2023-06-23T20:36:30.808Z,20.30
2023-06-23T20:38:57.788Z,20.20
2023-06-23T20:41:25.065Z,20.10
2023-06-23T20:43:52.144Z,20.00
2023-06-23T20:46:19.252Z,20.00
2023-06-23T20:48:46.541Z,19.90
2023-06-23T20:51:13.516Z,19.80
2023-06-23T20:53:41.008Z,19.90
2023-06-23T20:56:08.076Z,20.00
2023-06-23T20:58:35.058Z,19.70
2023-06-23T21:01:02.317Z,19.70
2023-06-23T21:03:29.539Z,19.60
2023-06-23T21:05:57.292Z,19.50
2023-06-23T21:08:24.628Z,19.40
2023-06-23T21:10:53.275Z,19.30
2023-06-23T21:13:20.471Z,19.40
2023-06-23T21:15:48.035Z,19.30
2023-06-23T21:18:15.168Z,19.20
2023-06-23T21:20:42.197Z,19.30
2023-06-23T21:23:09.205Z,19.30
2023-06-23T21:25:36.396Z,19.20
2023-06-23T21:28:03.867Z,19.20
2023-06-23T21:30:30.963Z,19.30
2023-06-23T21:32:58.125Z,19.20
2023-06-23T21:35:25.170Z,19.20
2023-06-23T21:37:52.426Z,19.10
2023-06-23T21:40:20.703Z,19.10
2023-06-23T21:42:47.885Z,18.90
2023-06-23T21:45:15.252Z,18.90
2023-06-23T21:47:43.033Z,18.90
2023-06-23T21:50:12.809Z,18.80
2023-06-23T21:52:40.041Z,18.80
2023-06-23T21:55:07.810Z,18.90
2023-06-23T21:57:34.743Z,19.00
2023-06-23T22:00:01.836Z,19.00
2023-06-23T22:02:28.992Z,18.90
2023-06-23T22:04:56.274Z,18.90
2023-06-23T22:07:23.363Z,18.80
2023-06-23T22:09:50.599Z,18.80
2023-06-23T22:12:17.562Z,18.70
2023-06-23T22:14:44.624Z,18.70
2023-06-23T22:17:11.569Z,18.70
2023-06-23T22:19:38.875Z,18.60
2023-06-23T22:22:06.348Z,18.60
2023-06-23T22:24:33.438Z,18.50
2023-06-23T22:27:00.491Z,18.50
2023-06-23T22:29:27.508Z,18.50
2023-06-23T22:31:55.019Z,18.60
2023-06-23T22:34:23.454Z,18.40
2023-06-23T22:36:50.480Z,18.50
2023-06-23T22:39:17.733Z,18.40
2023-06-23T22:41:44.790Z,18.50
2023-06-23T22:44:11.895Z,18.50
2023-06-23T22:46:38.891Z,18.30
2023-06-23T22:49:07.179Z,18.30
2023-06-23T22:51:34.587Z,18.30
2023-06-23T22:54:01.642Z,18.20
2023-06-23T22:56:28.619Z,18.10
2023-06-23T22:58:55.739Z,18.10
2023-06-23T23:01:24.016Z,18.00
2023-06-23T23:03:51.910Z,18.00
2023-06-23T23:06:19.287Z,17.90
2023-06-23T23:08:48.152Z,18.00
2023-06-23T23:11:15.253Z,17.90
2023-06-23T23:13:43.152Z,18.00
2023-06-23T23:16:10.205Z,17.80
2023-06-23T23:18:37.272Z,17.80
2023-06-23T23:21:04.269Z,17.70
2023-06-23T23:23:34.972Z,17.80
2023-06-23T23:26:03.294Z,17.90
2023-06-23T23:28:31.494Z,17.90
2023-06-23T23:31:01.538Z,17.70
2023-06-23T23:33:28.815Z,17.70
2023-06-23T23:36:03.162Z,17.80
2023-06-23T23:38:30.334Z,17.70
2023-06-23T23:40:59.185Z,17.80
2023-06-23T23:43:26.364Z,18.00
2023-06-23T23:45:53.419Z,17.90
2023-06-23T23:48:20.532Z,17.80
2023-06-23T23:50:47.693Z,17.60
2023-06-23T23:53:14.756Z,17.60
2023-06-23T23:55:41.797Z,17.60
2023-06-23T23:58:08.907Z,17.60
